Saint Joseph, MO

12:18 AM CDT on July 23, 2017 (GMT -0500)
Brookdale | | Change Station
Active Advisory: Severe Thunderstorm Watch

Elev 965 ft 39.77 °N, 94.82 °W | Updated 6 seconds ago

Partly Cloudy
Partly Cloudy
80.8 °F
Feels Like 83 °F
N
0.0
Wind Variable Wind from NNE
Gusts 0.0 mph

Today
High -- | Low -- °F
--% Chance of Precip.
Yesterday
High -- | Low -- °F
Precip. -- in
Pressure 29.90 in
Visibility 10.0 miles
Clouds Few 4900 ft
Heat Index 83 °F
Dew Point 66 °F
Humidity 62%
Rainfall 0.00 in
Snow Depth Not available.
6:10 AM 8:40 PM
Waning Crescent, 0% visible
METAR KSTJ 230453Z AUTO 22005KT 10SM FEW049 26/22 A2993 RMK AO2 LTG DSNT E AND SE SLP125 T02610222 $
Pressure 29.90 in
Visibility 10.0 miles
Clouds Few 4900 ft
Heat Index 83 °F
Dew Point 66 °F
Humidity 62%
Rainfall 0.00 in
Snow Depth Not available.
6:10 AM 8:40 PM
Waning Crescent, 0% visible
METAR KSTJ 230453Z AUTO 22005KT 10SM FEW049 26/22 A2993 RMK AO2 LTG DSNT E AND SE SLP125 T02610222 $

Get Your Daily Forecast Email!

Thanks for signing up!

Be on the lookout for a verification email in your inbox.

You'll start receiving severe weather alerts in your inbox..

×

10-Day Weather Forecast

Almanac

Astronomy

Jul. 23, 2017 Rise Set
Actual Time
Civil Twilight
Nautical Twilight
Astronomical Twilight
Moon
Length of Visible Light
Length of Day
Tomorrow will be .
, % of the Moon is Illuminated

Today's Extremes

State Highs State Lows

Community

WunderPhotos

Category 6

Welcome to Category 6. This is the collective home for Weather Underground's featured writeups by Dr. Jeff Masters (right), Bob Henson (left), Chris Burt, and other regular contributors.

Nearby

Air Quality

  Air Quality AQ Index Pollutant
Not available.

Snow Depth

Station Depth Elevation

Earthquake Activity

City Distance Mag. Time & Date
Minimum magnitude displayed is 2.5.

Coastal Water Temperatures

Place Temperature

Stations

Nearby Weather Stations

Station Location Temp. Windchill Dew Point Humidity Wind Precip. Elev Updated Type
                   

Watches & Warnings

Severe Thunderstorm Watch
Issued: 12:03 AM CDT Jul. 23, 2017 – National Weather Service

Severe Thunderstorm Watch 433 remains in effect until 100 am CDT

MO
. Missouri counties included are

Adair Buchanan Caldwell
Carroll Cass Chariton
Clay Clinton Cooper
Daviess DeKalb Grundy
Henry Howard Jackson
Johnson Lafayette Linn
Livingston Macon Pettis
Platte Randolph ray
Saline Sullivan